Time;durP1;ratioP1;P1;durP2;ratioP2;P2;SDS_P1;SDS_P2;PMS_P1;PMS_P2;Temp;Humidity;BMP_temperature;BMP_pressure;BME280_temperature;BME280_humidity;BME280_pressure;Samples;Min_cycle;Max_cycle;Signal;HPM_P1;HPM_P2
2022/09/26 00:00:42;;;;;;;8.90;4.30;;;14.40;81.10;;;;;;5056667;28;20992;-76
2022/09/26 00:03:09;;;;;;;6.23;4.30;;;14.40;81.80;;;;;;5059294;28;20475;-76
2022/09/26 00:05:37;;;;;;;8.70;3.73;;;14.30;82.40;;;;;;5068807;28;20465;-76
2022/09/26 00:08:07;;;;;;;9.43;4.23;;;14.40;82.90;;;;;;5071038;28;20825;-76
2022/09/26 00:10:35;;;;;;;11.40;3.93;;;14.40;83.40;;;;;;5058140;28;20955;-75
2022/09/26 00:13:02;;;;;;;7.50;3.13;;;14.40;83.40;;;;;;5055141;28;20472;-76
2022/09/26 00:15:28;;;;;;;12.10;3.80;;;14.50;83.60;;;;;;5053530;28;20460;-76
2022/09/26 00:17:55;;;;;;;6.80;3.80;;;14.50;83.50;;;;;;5055513;28;20480;-76
2022/09/26 00:20:22;;;;;;;7.50;4.60;;;14.50;83.80;;;;;;5055322;28;20474;-75
2022/09/26 00:22:49;;;;;;;13.00;4.17;;;14.50;83.80;;;;;;5055093;28;20478;-75
2022/09/26 00:25:18;;;;;;;5.33;3.70;;;14.50;83.80;;;;;;5055625;28;20444;-75
2022/09/26 00:27:45;;;;;;;5.93;3.90;;;14.50;83.70;;;;;;5054219;28;20839;-76
2022/09/26 00:30:12;;;;;;;5.47;4.10;;;14.50;83.90;;;;;;5064027;28;20819;-76
2022/09/26 00:32:38;;;;;;;8.20;3.53;;;14.50;84.00;;;;;;5067761;28;20495;-76
2022/09/26 00:35:06;;;;;;;5.93;3.77;;;14.50;84.10;;;;;;5054100;28;20434;-76
2022/09/26 00:37:33;;;;;;;10.33;4.20;;;14.50;84.10;;;;;;5053372;28;20456;-76
2022/09/26 00:40:00;;;;;;;6.53;4.17;;;14.50;84.20;;;;;;5061490;28;20552;-76
2022/09/26 00:42:28;;;;;;;9.87;4.40;;;14.40;84.10;;;;;;5073621;28;20457;-76
2022/09/26 00:44:56;;;;;;;5.70;4.10;;;14.40;84.40;;;;;;5068987;28;20462;-76
2022/09/26 00:47:35;;;;;;;6.00;4.40;;;14.30;85.20;;;;;;5069497;28;20461;-76
2022/09/26 00:50:06;;;;;;;7.70;4.40;;;14.20;85.60;;;;;;5061339;28;20462;-76
2022/09/26 00:52:36;;;;;;;10.57;4.37;;;14.30;86.10;;;;;;5063610;28;21010;-76
2022/09/26 00:55:05;;;;;;;6.50;3.80;;;14.30;86.00;;;;;;5057587;28;20451;-76
2022/09/26 00:57:37;;;;;;;8.20;4.30;;;14.30;86.10;;;;;;5065701;28;20459;-76
2022/09/26 01:00:07;;;;;;;6.53;4.20;;;14.30;86.50;;;;;;5067803;28;20458;-76
2022/09/26 01:02:34;;;;;;;6.70;3.97;;;14.30;86.60;;;;;;5053685;28;20472;-76
2022/09/26 01:05:03;;;;;;;11.00;4.77;;;14.30;86.70;;;;;;5054810;28;20469;-76
2022/09/26 01:07:30;;;;;;;5.53;4.57;;;14.30;86.50;;;;;;5067954;28;20472;-76
2022/09/26 01:09:57;;;;;;;11.13;4.90;;;14.40;86.70;;;;;;5071260;28;20498;-76
2022/09/26 01:12:24;;;;;;;7.57;5.53;;;14.40;86.80;;;;;;5060876;28;20463;-76
2022/09/26 01:14:54;;;;;;;8.00;5.13;;;14.30;87.20;;;;;;5059621;28;20467;-76
2022/09/26 01:17:22;;;;;;;12.73;6.07;;;14.30;87.40;;;;;;5072318;28;20976;-76
2022/09/26 01:20:02;;;;;;;11.17;5.90;;;14.20;87.90;;;;;;5056447;28;20492;-76
2022/09/26 01:23:02;;;;;;;7.37;5.87;;;14.20;88.50;;;;;;5063878;28;20999;-76
2022/09/26 01:25:51;;;;;;;7.20;5.93;;;14.20;89.10;;;;;;5071449;28;20455;-76
2022/09/26 01:28:35;;;;;;;7.47;6.30;;;14.10;89.30;;;;;;5067161;28;20461;-75
2022/09/26 01:31:12;;;;;;;7.43;6.50;;;14.00;90.00;;;;;;5068380;28;20476;-75
2022/09/26 01:33:49;;;;;;;7.63;6.63;;;14.00;90.20;;;;;;5075364;28;20488;-75
2022/09/26 01:36:36;;;;;;;10.10;6.40;;;13.90;90.30;;;;;;5077263;28;20459;-75
2022/09/26 01:39:23;;;;;;;8.67;6.90;;;13.90;90.40;;;;;;5081145;28;20475;-75
2022/09/26 01:41:59;;;;;;;8.13;7.23;;;13.80;90.60;;;;;;5086554;28;20434;-75
2022/09/26 01:44:30;;;;;;;10.30;6.87;;;13.80;90.80;;;;;;5080169;28;20850;-75
2022/09/26 01:47:04;;;;;;;8.47;6.40;;;13.80;91.00;;;;;;5087650;28;20430;-75
2022/09/26 01:49:36;;;;;;;11.17;7.53;;;13.70;91.00;;;;;;5084379;28;20474;-76
2022/09/26 01:52:09;;;;;;;7.10;6.40;;;13.70;91.50;;;;;;5053396;28;20432;-76
2022/09/26 01:54:42;;;;;;;7.77;7.07;;;13.60;91.80;;;;;;5071250;28;20458;-76
2022/09/26 01:57:14;;;;;;;10.70;7.37;;;13.60;92.10;;;;;;5059146;28;20942;-76
2022/09/26 01:59:45;;;;;;;11.27;8.20;;;13.60;92.00;;;;;;5076897;28;20465;-76
2022/09/26 02:02:22;;;;;;;8.30;7.60;;;13.60;92.20;;;;;;5058678;28;20464;-76
2022/09/26 02:04:53;;;;;;;9.57;8.70;;;13.70;92.30;;;;;;5072814;28;20481;-75
2022/09/26 02:07:24;;;;;;;8.10;7.13;;;13.70;92.30;;;;;;5076528;28;20927;-76
2022/09/26 02:09:58;;;;;;;9.20;7.50;;;13.70;92.40;;;;;;5070242;28;20466;-76
2022/09/26 02:12:31;;;;;;;10.67;8.67;;;13.70;92.40;;;;;;5065003;28;20469;-75
2022/09/26 02:15:01;;;;;;;13.40;8.07;;;13.70;92.30;;;;;;5054822;28;20945;-76
2022/09/26 02:17:33;;;;;;;9.40;7.70;;;13.70;92.30;;;;;;5056432;28;20438;-76
2022/09/26 02:20:05;;;;;;;9.80;8.40;;;13.70;92.40;;;;;;5059860;28;20482;-76
2022/09/26 02:22:34;;;;;;;14.47;8.13;;;13.70;92.70;;;;;;5057302;28;20479;-75
2022/09/26 02:25:01;;;;;;;10.07;7.63;;;13.70;92.50;;;;;;5056853;28;20438;-76
2022/09/26 02:27:28;;;;;;;12.93;7.47;;;13.70;92.70;;;;;;5056435;28;20463;-76
2022/09/26 02:29:56;;;;;;;10.17;7.67;;;13.80;92.80;;;;;;5056346;28;20460;-76
2022/09/26 02:32:29;;;;;;;8.57;7.70;;;13.80;92.60;;;;;;5056249;28;20464;-76
2022/09/26 02:34:58;;;;;;;8.20;7.50;;;13.90;92.50;;;;;;5058134;28;20434;-76
2022/09/26 02:37:27;;;;;;;8.90;8.00;;;13.90;92.40;;;;;;5071193;28;20966;-75
2022/09/26 02:39:56;;;;;;;10.60;7.90;;;13.90;92.20;;;;;;5077493;28;21012;-75
2022/09/26 02:42:29;;;;;;;9.90;7.80;;;13.90;92.20;;;;;;5077467;28;20425;-76
2022/09/26 02:45:17;;;;;;;7.70;6.90;;;13.90;92.20;;;;;;5077043;28;20432;-76
2022/09/26 02:48:01;;;;;;;9.87;8.23;;;13.80;92.40;;;;;;5076360;28;20442;-76
2022/09/26 02:50:40;;;;;;;8.60;7.77;;;13.90;92.50;;;;;;5081902;28;20519;-75
2022/09/26 02:53:17;;;;;;;9.07;7.50;;;13.80;92.40;;;;;;5086505;28;20476;-75
2022/09/26 02:55:51;;;;;;;10.73;7.90;;;13.90;92.40;;;;;;5084168;28;20441;-75
2022/09/26 02:58:27;;;;;;;10.30;7.47;;;13.90;92.30;;;;;;5090120;28;20482;-75
2022/09/26 03:01:02;;;;;;;10.40;7.40;;;13.90;92.30;;;;;;5074818;28;20457;-75
2022/09/26 03:03:35;;;;;;;8.93;7.83;;;13.90;92.20;;;;;;5073933;28;20480;-76
2022/09/26 03:06:06;;;;;;;10.20;7.33;;;13.90;92.10;;;;;;5077484;28;20491;-75
2022/09/26 03:08:37;;;;;;;8.13;7.00;;;13.90;92.10;;;;;;5094176;28;20426;-75
2022/09/26 03:11:09;;;;;;;11.90;8.53;;;13.90;92.20;;;;;;5097382;28;20434;-75
2022/09/26 03:13:38;;;;;;;9.80;7.90;;;13.90;92.20;;;;;;5091998;28;20528;-76
2022/09/26 03:16:06;;;;;;;8.97;8.03;;;13.90;92.30;;;;;;5085724;28;20454;-75
2022/09/26 03:18:39;;;;;;;12.23;8.43;;;13.90;92.10;;;;;;5073315;28;20479;-75
2022/09/26 03:21:08;;;;;;;8.57;7.67;;;13.90;92.10;;;;;;5072335;28;20436;-75
2022/09/26 03:23:35;;;;;;;7.80;7.10;;;13.90;92.00;;;;;;5075065;28;20491;-76
2022/09/26 03:26:08;;;;;;;8.47;7.60;;;13.90;92.10;;;;;;5070705;28;20467;-76
2022/09/26 03:28:35;;;;;;;8.10;7.17;;;13.90;92.10;;;;;;5056652;28;20449;-76
2022/09/26 03:31:02;;;;;;;7.97;6.73;;;13.90;92.20;;;;;;5066302;28;20469;-76
2022/09/26 03:33:28;;;;;;;8.17;7.27;;;13.90;92.20;;;;;;5057818;28;20595;-76
2022/09/26 03:35:57;;;;;;;13.07;7.10;;;13.90;92.20;;;;;;5055541;28;20456;-76
2022/09/26 03:38:26;;;;;;;10.57;7.90;;;13.90;92.30;;;;;;5068064;28;20971;-76
2022/09/26 03:40:53;;;;;;;7.53;6.73;;;13.90;92.20;;;;;;5058354;28;20460;-76
2022/09/26 03:43:23;;;;;;;9.03;6.80;;;14.00;92.00;;;;;;5055848;28;20488;-76
2022/09/26 03:45:50;;;;;;;15.57;6.70;;;14.00;91.90;;;;;;5062590;28;20463;-75
2022/09/26 03:48:17;;;;;;;9.63;6.40;;;14.00;91.70;;;;;;5060314;28;20497;-75
2022/09/26 03:50:43;;;;;;;8.73;6.07;;;14.00;91.70;;;;;;5068998;28;20472;-75
2022/09/26 03:53:10;;;;;;;8.23;6.70;;;14.00;91.70;;;;;;5061061;28;20990;-76
2022/09/26 03:55:38;;;;;;;7.30;6.53;;;14.00;91.70;;;;;;5069125;28;20487;-76
2022/09/26 03:58:06;;;;;;;7.90;6.13;;;13.90;91.70;;;;;;5061245;28;20473;-76
2022/09/26 04:00:32;;;;;;;8.27;6.23;;;14.00;91.60;;;;;;5064980;28;20498;-76
2022/09/26 04:03:02;;;;;;;6.87;5.57;;;14.00;91.70;;;;;;5056109;28;20476;-76
2022/09/26 04:05:29;;;;;;;11.63;7.17;;;13.90;91.40;;;;;;5054813;28;20453;-76
2022/09/26 04:07:58;;;;;;;8.67;6.40;;;13.90;91.50;;;;;;5058151;28;20828;-76
2022/09/26 04:10:26;;;;;;;10.80;6.10;;;13.90;91.50;;;;;;5062933;28;20473;-76
2022/09/26 04:12:55;;;;;;;9.23;6.00;;;13.90;91.40;;;;;;5057500;28;21075;-76
2022/09/26 04:15:22;;;;;;;9.43;6.07;;;13.90;91.30;;;;;;5054671;28;20471;-76
2022/09/26 04:17:49;;;;;;;8.13;5.83;;;13.90;91.10;;;;;;5061538;28;20815;-76
2022/09/26 04:20:15;;;;;;;8.33;6.13;;;13.90;91.10;;;;;;5073737;28;20479;-76
2022/09/26 04:22:42;;;;;;;10.07;6.10;;;13.90;91.10;;;;;;5075768;28;20494;-76
2022/09/26 04:25:10;;;;;;;9.40;6.70;;;13.90;91.10;;;;;;5074354;28;20456;-76
2022/09/26 04:27:36;;;;;;;6.87;5.43;;;13.90;91.20;;;;;;5073914;28;20998;-76
2022/09/26 04:30:06;;;;;;;6.20;5.60;;;13.90;91.20;;;;;;5065867;28;20438;-76
2022/09/26 04:32:32;;;;;;;7.73;5.83;;;13.90;91.00;;;;;;5054026;28;20475;-75
2022/09/26 04:34:59;;;;;;;9.73;5.83;;;13.90;90.90;;;;;;5054406;28;20784;-75
2022/09/26 04:37:26;;;;;;;9.40;5.80;;;13.90;91.00;;;;;;5061244;28;20466;-75
2022/09/26 04:39:53;;;;;;;10.13;6.13;;;13.90;91.00;;;;;;5063024;28;20473;-75
2022/09/26 04:42:20;;;;;;;6.90;5.50;;;13.90;90.90;;;;;;5069225;28;20463;-75
2022/09/26 04:44:47;;;;;;;8.23;5.40;;;13.90;90.80;;;;;;5055201;28;20986;-73
2022/09/26 04:47:15;;;;;;;8.33;5.43;;;13.80;90.80;;;;;;5070290;28;20460;-74
2022/09/26 04:49:42;;;;;;;10.50;6.10;;;13.90;90.80;;;;;;5062731;28;20460;-72
2022/09/26 04:52:09;;;;;;;7.43;5.07;;;13.80;90.70;;;;;;5058905;28;20969;-74
2022/09/26 04:54:37;;;;;;;7.30;4.97;;;13.80;90.60;;;;;;5067766;28;20459;-74
2022/09/26 04:57:04;;;;;;;6.33;4.80;;;13.80;90.60;;;;;;5055850;28;20474;-73
2022/09/26 04:59:31;;;;;;;10.07;5.23;;;13.80;90.50;;;;;;5072614;28;21065;-73
2022/09/26 05:01:58;;;;;;;6.10;5.30;;;13.80;90.50;;;;;;5063727;28;21027;-74
2022/09/26 05:04:26;;;;;;;8.20;5.53;;;13.80;90.50;;;;;;5062918;28;20482;-73
2022/09/26 05:06:56;;;;;;;8.73;5.80;;;13.80;90.50;;;;;;5052279;28;20472;-73
2022/09/26 05:09:23;;;;;;;7.97;5.77;;;13.80;90.50;;;;;;5053666;28;20450;-73
2022/09/26 05:11:50;;;;;;;7.97;4.73;;;13.70;90.80;;;;;;5058150;28;20471;-74
2022/09/26 05:14:17;;;;;;;8.53;4.70;;;13.70;90.30;;;;;;5053573;28;20482;-74
2022/09/26 05:16:43;;;;;;;5.17;4.77;;;13.70;90.30;;;;;;5062488;28;20467;-73
2022/09/26 05:19:11;;;;;;;9.13;4.90;;;13.70;90.30;;;;;;5060082;28;20493;-73
2022/09/26 05:21:39;;;;;;;6.90;5.07;;;13.70;90.20;;;;;;5070973;28;20607;-73
2022/09/26 05:26:52;;;;;;;10.07;4.83;;;13.70;90.10;;;;;;5061284;28;20531;-73
2022/09/26 05:29:20;;;;;;;8.80;4.90;;;13.60;89.70;;;;;;5061607;28;20457;-73
2022/09/26 05:31:47;;;;;;;6.53;4.40;;;13.60;89.90;;;;;;5064351;28;20472;-73
2022/09/26 05:34:15;;;;;;;6.80;3.67;;;13.60;89.70;;;;;;5075341;28;20483;-73
2022/09/26 05:36:43;;;;;;;9.07;4.20;;;13.60;89.30;;;;;;5055836;28;20567;-73
2022/09/26 05:40:55;;;;;;;6.80;4.03;;;13.60;88.90;;;;;;5057227;28;20486;-73
2022/09/26 05:41:57;;;;;;;6.03;4.50;;;13.60;88.30;;;;;;5055665;28;20547;-73
2022/09/26 05:44:23;;;;;;;6.40;4.40;;;13.60;87.40;;;;;;5057153;28;20462;-73
2022/09/26 05:46:51;;;;;;;9.80;4.37;;;13.60;87.50;;;;;;5057191;28;20442;-73
2022/09/26 05:49:18;;;;;;;4.73;4.33;;;13.60;87.60;;;;;;5057207;28;20455;-74
2022/09/26 05:51:46;;;;;;;4.47;4.03;;;13.60;87.50;;;;;;5059997;28;20452;-73
2022/09/26 05:54:13;;;;;;;6.03;4.17;;;13.70;87.80;;;;;;5061235;28;20473;-73
2022/09/26 05:56:39;;;;;;;7.67;2.90;;;13.60;87.50;;;;;;5057486;28;20817;-73
2022/09/26 05:59:06;;;;;;;8.53;3.67;;;13.70;87.00;;;;;;5057190;28;20491;-73
2022/09/26 06:01:34;;;;;;;6.70;4.03;;;13.70;86.90;;;;;;5057093;28;20430;-73
2022/09/26 06:04:02;;;;;;;9.30;3.47;;;13.70;86.70;;;;;;5056955;28;20838;-73
2022/09/26 06:06:29;;;;;;;8.70;4.53;;;13.70;86.50;;;;;;5056852;28;20640;-73
2022/09/26 06:08:58;;;;;;;7.60;4.50;;;13.80;86.50;;;;;;5056206;28;20897;-73
2022/09/26 06:11:26;;;;;;;6.57;4.00;;;13.80;86.50;;;;;;5056528;28;20457;-73
2022/09/26 06:13:54;;;;;;;8.17;4.60;;;13.80;86.50;;;;;;5056455;28;20536;-74
2022/09/26 06:16:22;;;;;;;5.33;3.70;;;13.80;86.20;;;;;;5056394;28;20828;-73
2022/09/26 06:18:51;;;;;;;7.23;4.10;;;13.90;86.30;;;;;;5056335;28;20471;-73
2022/09/26 06:21:19;;;;;;;7.80;3.77;;;13.90;86.10;;;;;;5056911;28;20540;-72
2022/09/26 06:23:47;;;;;;;7.13;3.37;;;13.90;85.90;;;;;;5057067;28;20502;-78
2022/09/26 06:26:19;;;;;;;10.47;3.93;;;14.00;85.60;;;;;;5057201;28;20460;-73
2022/09/26 06:28:48;;;;;;;4.77;3.30;;;14.00;85.20;;;;;;5057148;28;20505;-73
2022/09/26 06:31:17;;;;;;;7.73;4.60;;;14.10;85.40;;;;;;5055845;28;20970;-75
2022/09/26 06:33:44;;;;;;;10.83;4.70;;;14.10;85.40;;;;;;5056275;28;20468;-74
2022/09/26 06:36:12;;;;;;;4.63;3.30;;;14.10;84.90;;;;;;5056524;28;20816;-74
2022/09/26 06:38:39;;;;;;;11.47;4.30;;;14.20;85.50;;;;;;5056106;28;20455;-74
2022/09/26 06:41:07;;;;;;;7.27;3.50;;;14.20;85.50;;;;;;5055285;28;20487;-74
2022/09/26 06:43:35;;;;;;;6.27;3.70;;;14.20;85.50;;;;;;5056284;28;20500;-73
2022/09/26 06:46:01;;;;;;;6.10;3.80;;;14.30;85.10;;;;;;5056070;28;20457;-74
2022/09/26 06:48:28;;;;;;;6.10;3.40;;;14.30;84.80;;;;;;5056325;28;20443;-75
2022/09/26 06:50:59;;;;;;;6.07;2.93;;;14.30;84.70;;;;;;5055872;28;20453;-74
2022/09/26 06:53:26;;;;;;;6.30;3.40;;;14.30;84.70;;;;;;5055480;28;20518;-74
2022/09/26 06:55:53;;;;;;;6.13;3.20;;;14.30;84.60;;;;;;5055529;28;20504;-75
2022/09/26 06:58:19;;;;;;;7.10;3.10;;;14.20;84.20;;;;;;5055632;28;20459;-75
2022/09/26 07:00:47;;;;;;;4.90;2.83;;;14.20;84.10;;;;;;5055491;28;20512;-74
2022/09/26 07:03:14;;;;;;;8.13;3.37;;;14.20;84.20;;;;;;5055298;28;20504;-74
2022/09/26 07:05:42;;;;;;;3.10;2.80;;;14.20;84.40;;;;;;5055457;28;20532;-74
2022/09/26 07:08:09;;;;;;;6.13;2.90;;;14.20;84.40;;;;;;5055410;28;20450;-74
2022/09/26 07:10:36;;;;;;;6.47;2.67;;;14.20;84.60;;;;;;5055373;28;20442;-74
2022/09/26 07:13:05;;;;;;;6.67;2.40;;;14.20;85.10;;;;;;5055426;28;20469;-74
2022/09/26 07:15:33;;;;;;;3.40;2.10;;;14.20;85.20;;;;;;5055396;28;20457;-74
2022/09/26 07:18:03;;;;;;;6.20;2.60;;;14.30;84.90;;;;;;5055107;28;20466;-73
2022/09/26 07:20:32;;;;;;;3.00;2.20;;;14.20;85.80;;;;;;5054962;28;20491;-72
2022/09/26 07:23:01;;;;;;;5.23;2.50;;;14.20;85.70;;;;;;5054976;28;20523;-72
2022/09/26 07:25:28;;;;;;;15.13;2.70;;;14.20;86.50;;;;;;5054959;28;20985;-72
2022/09/26 07:27:55;;;;;;;3.27;1.87;;;14.10;87.20;;;;;;5055144;28;20446;-73
2022/09/26 07:30:22;;;;;;;3.37;2.03;;;14.10;87.40;;;;;;5054958;28;20453;-73
2022/09/26 07:32:48;;;;;;;2.97;2.17;;;14.10;87.70;;;;;;5054921;28;20474;-72
2022/09/26 07:35:17;;;;;;;7.20;2.53;;;14.10;88.40;;;;;;5055029;28;20448;-73
2022/09/26 07:37:45;;;;;;;6.87;1.80;;;14.10;88.80;;;;;;5054944;28;20452;-73
2022/09/26 07:40:12;;;;;;;2.60;1.83;;;14.20;89.10;;;;;;5054629;28;20504;-73
2022/09/26 07:42:40;;;;;;;7.23;2.83;;;14.10;89.10;;;;;;5054762;28;21006;-73
2022/09/26 07:45:08;;;;;;;7.97;2.80;;;14.10;88.80;;;;;;5055389;28;20460;-72
2022/09/26 07:50:20;;;;;;;3.70;2.13;;;14.20;89.50;;;;;;5054808;28;20899;-72
2022/09/26 07:52:48;;;;;;;4.50;1.60;;;14.20;89.00;;;;;;5053512;28;21008;-72
2022/09/26 07:55:18;;;;;;;3.43;2.60;;;14.20;89.00;;;;;;5054538;28;20452;-72
2022/09/26 07:57:45;;;;;;;3.33;2.10;;;14.20;88.30;;;;;;5054611;28;20444;-72
2022/09/26 08:00:15;;;;;;;4.77;3.30;;;14.10;88.90;;;;;;5054339;28;20993;-73
2022/09/26 08:02:45;;;;;;;5.63;3.40;;;14.20;89.30;;;;;;5054461;28;21060;-73
2022/09/26 08:05:18;;;;;;;3.63;2.60;;;14.10;88.90;;;;;;5054409;28;20447;-74
2022/09/26 08:14:30;;;;;;;3.07;1.83;;;14.20;89.20;;;;;;5053895;28;20965;-73
2022/09/26 08:16:57;;;;;;;5.80;1.50;;;14.10;88.20;;;;;;5054127;28;20439;-73
2022/09/26 08:19:24;;;;;;;2.30;1.47;;;14.10;88.60;;;;;;5053788;28;20940;-74
2022/09/26 08:21:51;;;;;;;4.10;1.90;;;14.10;88.90;;;;;;5054087;28;20545;-74
2022/09/26 08:24:18;;;;;;;2.73;1.20;;;14.10;88.90;;;;;;5054085;28;20480;-74
2022/09/26 08:40:44;;;;;;;3.77;1.50;;;14.10;87.70;;;;;;5132436;27;20611;-69
2022/09/26 08:43:28;;;;;;;11.37;1.40;;;14.20;88.20;;;;;;5131463;28;20430;-69
2022/09/26 08:49:22;;;;;;;3.57;1.30;;;14.20;87.30;;;;;;5088430;28;20477;-69
2022/09/26 08:51:51;;;;;;;3.90;2.53;;;14.20;87.40;;;;;;5088438;28;20437;-69
2022/09/26 08:54:20;;;;;;;4.27;2.70;;;14.20;87.20;;;;;;5114241;27;20549;-70
2022/09/26 08:56:51;;;;;;;2.97;1.80;;;14.30;87.60;;;;;;5131529;27;20560;-69
2022/09/26 08:59:25;;;;;;;5.60;1.83;;;14.30;87.30;;;;;;5130182;27;20427;-70
2022/09/26 09:01:56;;;;;;;3.80;2.13;;;14.30;87.10;;;;;;5111725;27;20457;-69
2022/09/26 09:04:27;;;;;;;1.60;1.50;;;14.30;88.00;;;;;;5110862;28;20433;-69
2022/09/26 09:07:13;;;;;;;1.90;1.53;;;14.30;87.20;;;;;;5110946;28;20523;-69
2022/09/26 09:09:39;;;;;;;4.23;2.77;;;14.40;87.50;;;;;;5110568;28;20469;-69
2022/09/26 09:12:16;;;;;;;2.30;2.10;;;14.30;87.60;;;;;;5110974;28;20482;-69
2022/09/26 09:14:59;;;;;;;2.73;1.60;;;14.30;88.10;;;;;;5110379;28;21017;-69
2022/09/26 09:17:38;;;;;;;1.90;1.63;;;14.20;88.40;;;;;;5110436;28;20906;-69
2022/09/26 09:20:18;;;;;;;2.57;1.47;;;14.20;88.50;;;;;;5110931;28;20480;-69
2022/09/26 09:22:58;;;;;;;2.50;2.10;;;14.30;88.70;;;;;;5121106;28;20839;-69
2022/09/26 09:25:31;;;;;;;3.20;1.90;;;14.30;89.30;;;;;;5130965;27;20479;-69
2022/09/26 09:28:13;;;;;;;5.80;2.57;;;14.30;89.30;;;;;;5130951;27;20436;-69
2022/09/26 09:30:43;;;;;;;3.60;1.77;;;14.50;89.30;;;;;;5130221;27;20549;-69
2022/09/26 09:33:14;;;;;;;2.27;1.90;;;14.50;89.10;;;;;;5130816;27;20453;-69
2022/09/26 09:35:44;;;;;;;5.13;2.40;;;14.60;89.70;;;;;;5130664;27;21011;-69
2022/09/26 09:38:16;;;;;;;3.83;1.83;;;14.60;90.00;;;;;;5129679;27;20504;-69
2022/09/26 09:40:49;;;;;;;3.73;1.73;;;14.70;90.00;;;;;;5117536;27;20466;-69
2022/09/26 09:43:25;;;;;;;1.93;1.70;;;14.70;90.00;;;;;;5096885;28;20443;-69
2022/09/26 09:45:55;;;;;;;2.90;1.60;;;14.70;90.00;;;;;;5096815;28;20896;-69
2022/09/26 09:48:27;;;;;;;1.43;1.33;;;14.70;89.80;;;;;;5096495;28;20477;-69
2022/09/26 09:51:06;;;;;;;4.40;1.30;;;14.70;89.40;;;;;;5097676;28;20463;-69
2022/09/26 09:53:52;;;;;;;2.33;1.40;;;14.80;89.20;;;;;;5099973;28;20459;-69
2022/09/26 09:56:31;;;;;;;2.87;1.40;;;14.80;88.70;;;;;;5120208;28;20475;-69
2022/09/26 09:59:14;;;;;;;3.20;1.60;;;14.80;89.20;;;;;;5120328;28;20437;-69
2022/09/26 10:01:45;;;;;;;2.87;1.60;;;14.90;89.20;;;;;;5122497;28;20812;-69
2022/09/26 10:04:22;;;;;;;3.43;1.87;;;14.90;89.00;;;;;;5121472;28;20449;-69
2022/09/26 10:06:51;;;;;;;1.47;1.37;;;14.90;88.40;;;;;;5119715;28;20437;-69
2022/09/26 10:09:22;;;;;;;2.53;1.80;;;15.00;87.70;;;;;;5116785;28;20879;-69
2022/09/26 10:11:49;;;;;;;1.97;1.80;;;15.00;87.60;;;;;;5096896;28;20477;-69
2022/09/26 10:14:27;;;;;;;4.20;2.00;;;15.00;87.90;;;;;;5095950;28;20447;-69
2022/09/26 10:17:13;;;;;;;4.07;2.00;;;15.10;87.30;;;;;;5095656;28;20975;-69
2022/09/26 10:19:42;;;;;;;2.83;1.87;;;15.10;87.00;;;;;;5095849;28;20479;-69
2022/09/26 10:22:18;;;;;;;3.73;2.90;;;15.20;87.00;;;;;;5095662;28;20903;-69
2022/09/26 10:24:47;;;;;;;4.77;1.70;;;15.20;87.20;;;;;;5095391;28;20482;-69
2022/09/26 10:27:21;;;;;;;4.40;2.50;;;15.40;86.30;;;;;;5095440;28;20466;-69
2022/09/26 10:29:56;;;;;;;2.93;2.00;;;15.40;85.60;;;;;;5095657;28;20471;-69
2022/09/26 10:32:25;;;;;;;3.10;2.10;;;15.60;85.00;;;;;;5095166;28;20839;-69
2022/09/26 10:38:26;;;;;;;2.60;1.80;;;15.70;84.30;;;;;;4981587;28;20439;-70
2022/09/26 10:40:54;;;;;;;5.00;2.17;;;15.80;84.00;;;;;;5095476;28;20443;-70
2022/09/26 10:43:27;;;;;;;8.50;2.27;;;15.90;83.10;;;;;;5095079;28;20455;-70
2022/09/26 10:46:02;;;;;;;3.67;2.00;;;16.00;82.00;;;;;;5094940;28;20483;-70
2022/09/26 10:48:47;;;;;;;4.40;2.43;;;16.00;81.20;;;;;;5095286;28;20469;-70
2022/09/26 10:51:23;;;;;;;8.57;2.20;;;16.10;80.40;;;;;;5093727;28;20467;-70
2022/09/26 10:53:52;;;;;;;3.30;1.60;;;16.00;78.80;;;;;;5094703;28;20512;-70
2022/09/26 10:56:25;;;;;;;3.03;1.93;;;16.00;80.00;;;;;;5094612;28;20480;-70
2022/09/26 10:59:04;;;;;;;4.30;1.40;;;16.00;79.00;;;;;;5094749;28;20925;-70
2022/09/26 11:08:16;;;;;;;2.23;1.63;;;16.20;77.40;;;;;;5094240;28;20422;-70
2022/09/26 11:10:47;;;;;;;4.47;1.50;;;16.20;77.70;;;;;;5094578;28;20492;-70
2022/09/26 11:13:18;;;;;;;3.73;1.50;;;16.10;76.90;;;;;;5097624;28;20512;-70
2022/09/26 11:15:54;;;;;;;3.37;1.53;;;16.10;76.40;;;;;;5098568;28;20544;-69
2022/09/26 11:18:27;;;;;;;1.83;1.50;;;16.00;77.60;;;;;;5098663;28;20439;-70
2022/09/26 11:20:57;;;;;;;2.80;1.40;;;16.00;77.70;;;;;;5116621;28;20553;-69
2022/09/26 11:23:37;;;;;;;4.50;1.80;;;16.00;76.20;;;;;;5119839;28;20931;-69
2022/09/26 11:26:15;;;;;;;4.50;1.73;;;16.00;75.90;;;;;;5119646;28;20518;-69
2022/09/26 11:28:47;;;;;;;1.73;1.33;;;16.00;76.50;;;;;;5120930;28;20549;-69
2022/09/26 11:31:24;;;;;;;2.67;1.30;;;16.10;75.20;;;;;;5119662;28;20450;-72
2022/09/26 11:33:53;;;;;;;1.73;1.20;;;16.20;75.60;;;;;;5120932;28;20524;-72
2022/09/26 11:36:50;;;;;;;2.80;1.40;;;16.20;75.40;;;;;;5119819;28;20486;-73
2022/09/26 11:39:34;;;;;;;2.63;1.47;;;16.30;74.50;;;;;;5118110;27;20867;-72
2022/09/26 11:42:19;;;;;;;7.17;2.27;;;16.50;74.50;;;;;;5118454;27;20453;-72
2022/09/26 11:44:57;;;;;;;4.00;1.93;;;16.60;74.00;;;;;;5117782;28;20536;-72
2022/09/26 11:48:12;;;;;;;10.37;1.60;;;16.80;71.60;;;;;;5116410;28;20537;-72
2022/09/26 11:50:51;;;;;;;2.93;1.13;;;16.80;71.60;;;;;;5091186;28;20559;-72
2022/09/26 11:53:38;;;;;;;2.00;1.23;;;16.80;70.80;;;;;;5110640;28;20559;-71
2022/09/26 11:56:20;;;;;;;6.90;1.47;;;16.90;70.90;;;;;;5097485;28;20488;-71
2022/09/26 11:58:58;;;;;;;2.17;1.50;;;17.00;70.80;;;;;;5094819;28;20456;-70
2022/09/26 12:01:36;;;;;;;1.77;1.30;;;17.00;70.50;;;;;;5093844;28;20463;-70
2022/09/26 12:04:49;;;;;;;3.30;1.10;;;17.00;70.20;;;;;;5093807;28;20440;-70
2022/09/26 12:07:21;;;;;;;2.17;1.37;;;16.90;70.10;;;;;;5093809;28;20505;-71
2022/09/26 12:10:08;;;;;;;3.60;1.20;;;17.00;70.10;;;;;;5093735;28;20845;-70
2022/09/26 12:12:48;;;;;;;2.73;1.30;;;17.10;69.70;;;;;;5093876;28;20433;-70
2022/09/26 12:15:24;;;;;;;2.07;1.10;;;17.10;69.00;;;;;;5093303;28;21041;-70
2022/09/26 12:18:05;;;;;;;5.37;1.53;;;17.10;69.40;;;;;;5093418;28;20824;-71
2022/09/26 12:20:38;;;;;;;3.03;1.33;;;17.10;69.40;;;;;;5093700;28;20438;-70
2022/09/26 12:23:15;;;;;;;1.40;1.10;;;17.00;71.60;;;;;;5093840;28;20451;-71
2022/09/26 12:25:56;;;;;;;5.10;1.10;;;16.90;72.30;;;;;;5103475;28;20560;-70
2022/09/26 12:28:38;;;;;;;2.30;1.20;;;16.70;75.90;;;;;;5114335;28;20427;-70
2022/09/26 12:31:12;;;;;;;4.57;1.77;;;16.50;78.60;;;;;;5114406;28;20462;-70
2022/09/26 12:34:01;;;;;;;3.30;1.93;;;16.40;79.80;;;;;;5113704;28;20777;-70
2022/09/26 12:36:46;;;;;;;4.50;1.43;;;16.20;82.70;;;;;;5114316;28;20477;-71
2022/09/26 12:39:36;;;;;;;3.60;2.00;;;16.10;82.30;;;;;;5114837;28;20501;-71
2022/09/26 12:42:17;;;;;;;5.70;1.70;;;16.10;83.30;;;;;;5116838;28;20434;-70
2022/09/26 12:45:06;;;;;;;6.80;5.90;;;16.10;83.00;;;;;;5115679;28;20837;-70
2022/09/26 12:48:05;;;;;;;9.10;6.70;;;16.10;83.80;;;;;;5115237;28;20445;-70
2022/09/26 12:50:42;;;;;;;4.53;3.90;;;16.10;84.80;;;;;;5114506;28;20471;-70
2022/09/26 12:53:37;;;;;;;2.27;1.70;;;16.20;85.30;;;;;;5114758;28;20431;-71
2022/09/26 12:56:08;;;;;;;3.07;2.00;;;16.20;84.80;;;;;;5114582;28;20475;-70
2022/09/26 12:58:50;;;;;;;4.83;2.27;;;16.30;83.90;;;;;;5114633;28;20952;-70
2022/09/26 13:01:43;;;;;;;4.17;2.17;;;16.30;84.00;;;;;;5115002;28;20434;-71
2022/09/26 13:04:42;;;;;;;2.53;1.30;;;16.30;83.70;;;;;;5114458;28;20496;-71
2022/09/26 13:07:23;;;;;;;1.90;1.70;;;16.20;83.10;;;;;;5114072;28;20430;-71
2022/09/26 13:10:08;;;;;;;3.47;1.60;;;16.10;83.60;;;;;;5113791;28;20470;-70
2022/09/26 13:13:08;;;;;;;1.83;1.40;;;16.10;84.70;;;;;;5113441;28;20439;-70
2022/09/26 13:15:43;;;;;;;2.23;1.60;;;16.10;83.90;;;;;;5115586;28;20489;-70
2022/09/26 13:18:16;;;;;;;4.00;1.40;;;16.00;83.80;;;;;;5117418;28;20506;-72
2022/09/26 13:20:48;;;;;;;3.00;1.80;;;16.00;84.20;;;;;;5117537;28;20452;-70
2022/09/26 13:23:20;;;;;;;3.67;2.00;;;15.90;84.70;;;;;;5117402;28;20454;-70
2022/09/26 13:25:52;;;;;;;3.60;1.60;;;15.90;84.60;;;;;;5117489;28;20477;-70
2022/09/26 13:28:23;;;;;;;1.90;1.80;;;15.90;85.00;;;;;;5105890;28;20841;-70
2022/09/26 13:30:56;;;;;;;2.43;2.17;;;15.80;84.90;;;;;;5096679;28;20613;-70
2022/09/26 13:33:33;;;;;;;3.83;1.70;;;15.80;85.30;;;;;;5096799;28;20527;-70
2022/09/26 13:36:02;;;;;;;6.00;1.70;;;15.80;85.80;;;;;;5098991;28;20473;-70
2022/09/26 13:38:38;;;;;;;3.17;1.47;;;15.80;85.50;;;;;;5101274;28;20500;-70
2022/09/26 13:41:17;;;;;;;1.40;1.30;;;15.80;86.10;;;;;;5096499;28;20439;-70
2022/09/26 13:44:03;;;;;;;2.67;1.80;;;15.80;86.00;;;;;;5096571;28;20431;-69
2022/09/26 13:46:43;;;;;;;2.80;1.60;;;15.80;86.00;;;;;;5096331;28;20479;-69
2022/09/26 13:49:31;;;;;;;4.73;1.40;;;15.70;86.70;;;;;;5096496;28;20435;-69
2022/09/26 13:52:13;;;;;;;7.33;2.03;;;15.80;87.90;;;;;;5096356;28;20474;-69